createdAt,value
2019-05-03T00:00:15.995Z,12.50
2019-05-03T00:02:55.647Z,12.30
2019-05-03T00:05:43.890Z,12.40
2019-05-03T00:08:13.618Z,12.40
2019-05-03T00:10:42.977Z,12.50
2019-05-03T00:13:12.642Z,12.40
2019-05-03T00:15:49.003Z,12.30
2019-05-03T00:18:18.567Z,12.30
2019-05-03T00:20:48.028Z,12.40
2019-05-03T00:23:17.301Z,12.40
2019-05-03T00:25:46.866Z,12.40
2019-05-03T00:28:16.120Z,12.50
2019-05-03T00:30:45.521Z,12.50
2019-05-03T00:33:15.177Z,12.60
2019-05-03T00:36:11.575Z,12.60
2019-05-03T00:38:41.894Z,12.30
2019-05-03T00:41:12.211Z,12.30
2019-05-03T00:43:42.363Z,12.20
2019-05-03T00:46:12.624Z,12.30
2019-05-03T00:48:43.008Z,12.40
2019-05-03T00:51:14.070Z,12.40
2019-05-03T00:53:43.284Z,12.50
2019-05-03T00:56:12.530Z,12.40
2019-05-03T00:59:07.344Z,12.30
2019-05-03T01:01:38.630Z,12.50
2019-05-03T01:04:07.812Z,12.50
2019-05-03T01:06:37.073Z,12.50
2019-05-03T01:09:13.854Z,12.50
2019-05-03T01:11:43.154Z,12.40
2019-05-03T01:14:13.030Z,12.40
2019-05-03T01:16:42.820Z,12.30
2019-05-03T01:19:12.211Z,12.40
2019-05-03T01:21:42.286Z,12.50
2019-05-03T01:24:12.292Z,12.50
2019-05-03T01:26:42.163Z,12.50
2019-05-03T01:29:12.178Z,12.60
2019-05-03T01:31:42.183Z,12.50
2019-05-03T01:34:12.509Z,12.50
2019-05-03T01:36:42.715Z,12.30
2019-05-03T01:39:13.216Z,12.30
2019-05-03T01:41:42.420Z,12.40
2019-05-03T01:44:12.508Z,12.50
2019-05-03T01:46:42.217Z,12.50
2019-05-03T01:49:18.009Z,12.50
2019-05-03T01:52:05.725Z,12.30
2019-05-03T01:54:34.988Z,12.20
2019-05-03T01:57:04.359Z,12.20
2019-05-03T01:59:33.529Z,12.10
2019-05-03T02:02:15.336Z,12.20
2019-05-03T02:04:53.447Z,12.10
2019-05-03T02:07:23.203Z,12.20
2019-05-03T02:09:52.603Z,12.10
2019-05-03T02:12:22.239Z,12.10
2019-05-03T02:14:52.053Z,12.10
2019-05-03T02:17:22.677Z,12.30
2019-05-03T02:19:52.725Z,12.00
2019-05-03T02:22:22.612Z,11.90
2019-05-03T02:24:52.638Z,11.80
2019-05-03T02:27:22.054Z,11.80
2019-05-03T02:29:52.403Z,11.90
2019-05-03T02:32:23.176Z,12.00
2019-05-03T02:34:53.546Z,12.10
2019-05-03T02:37:23.232Z,12.00
2019-05-03T02:39:56.935Z,11.90
2019-05-03T02:42:26.768Z,11.90
2019-05-03T02:44:56.743Z,11.80
2019-05-03T02:47:40.277Z,11.80
2019-05-03T02:50:16.475Z,11.70
2019-05-03T02:52:45.828Z,11.80
2019-05-03T02:55:16.309Z,11.70
2019-05-03T02:57:46.506Z,11.70
2019-05-03T03:00:19.816Z,11.40
2019-05-03T03:02:49.273Z,11.70
2019-05-03T03:05:18.612Z,11.60
2019-05-03T03:07:49.445Z,11.60
2019-05-03T03:10:19.020Z,11.50
2019-05-03T03:12:52.091Z,11.20
2019-05-03T03:15:22.323Z,11.20
2019-05-03T03:17:55.991Z,11.10
2019-05-03T03:20:26.109Z,11.20
2019-05-03T03:22:57.198Z,11.40
2019-05-03T03:25:31.706Z,11.20
2019-05-03T03:28:05.344Z,11.30
2019-05-03T03:31:28.302Z,11.10
2019-05-03T03:34:00.427Z,11.10
2019-05-03T03:36:45.973Z,11.20
2019-05-03T03:39:05.805Z,11.10
2019-05-03T03:41:35.313Z,11.00
2019-05-03T03:44:05.842Z,11.10
2019-05-03T03:46:37.571Z,11.00
2019-05-03T03:49:09.249Z,11.10
2019-05-03T03:51:40.807Z,11.00
2019-05-03T03:54:15.534Z,11.10
2019-05-03T03:57:02.203Z,11.00
2019-05-03T03:59:18.137Z,11.00
2019-05-03T04:01:47.633Z,10.90
2019-05-03T04:04:17.004Z,10.90
2019-05-03T04:06:46.810Z,11.10
2019-05-03T04:09:16.225Z,11.00
2019-05-03T04:11:46.426Z,11.20
2019-05-03T04:14:21.162Z,11.10
2019-05-03T04:17:07.687Z,11.20
2019-05-03T04:19:37.738Z,11.20
2019-05-03T04:22:07.507Z,11.30
2019-05-03T04:24:36.927Z,11.20
2019-05-03T04:27:18.540Z,11.10
2019-05-03T04:29:38.389Z,11.00
2019-05-03T04:32:09.321Z,11.10
2019-05-03T04:34:38.938Z,11.10
2019-05-03T04:37:08.339Z,11.10
2019-05-03T04:39:38.292Z,11.20
2019-05-03T04:42:07.595Z,11.10
2019-05-03T04:44:56.548Z,11.00
2019-05-03T04:47:26.847Z,11.00
2019-05-03T04:49:56.235Z,11.00
2019-05-03T04:52:26.136Z,11.00
2019-05-03T04:54:58.247Z,11.00
2019-05-03T04:57:40.095Z,11.00
2019-05-03T04:59:58.882Z,11.00
2019-05-03T05:02:28.611Z,11.00
2019-05-03T05:04:58.573Z,10.90
2019-05-03T05:07:28.330Z,11.10
2019-05-03T05:09:57.896Z,11.00
2019-05-03T05:12:27.753Z,11.10
2019-05-03T05:14:57.595Z,11.10
2019-05-03T05:17:35.598Z,11.00
2019-05-03T05:20:16.242Z,11.00
2019-05-03T05:22:45.537Z,11.00
2019-05-03T05:25:18.502Z,11.00
2019-05-03T05:28:04.619Z,11.20
2019-05-03T05:30:35.347Z,11.20
2019-05-03T05:33:06.428Z,11.20
2019-05-03T05:35:36.194Z,10.90
2019-05-03T05:38:06.053Z,11.20
2019-05-03T05:40:35.393Z,11.30
2019-05-03T05:43:05.093Z,11.30
2019-05-03T05:45:34.977Z,11.70
2019-05-03T05:48:07.815Z,11.70
2019-05-03T05:50:40.037Z,11.80
2019-05-03T05:53:10.345Z,12.00
2019-05-03T05:55:57.327Z,12.10
2019-05-03T05:58:58.044Z,12.00
2019-05-03T06:01:35.374Z,11.90
2019-05-03T06:04:05.388Z,11.70
2019-05-03T06:06:47.861Z,11.50
2019-05-03T06:09:25.764Z,11.70
2019-05-03T06:11:59.844Z,11.90
2019-05-03T06:14:54.518Z,11.90
2019-05-03T06:17:34.876Z,12.10
2019-05-03T06:20:24.473Z,12.30
2019-05-03T06:22:58.375Z,12.40
2019-05-03T06:25:32.414Z,12.40
2019-05-03T06:28:16.985Z,12.20
2019-05-03T06:31:06.451Z,12.40
2019-05-03T06:33:35.844Z,12.50
2019-05-03T06:36:05.542Z,12.80
2019-05-03T06:38:35.198Z,13.00
2019-05-03T06:41:04.836Z,12.50
2019-05-03T06:43:34.924Z,12.60
2019-05-03T06:46:05.363Z,12.40
2019-05-03T06:48:35.247Z,12.60
2019-05-03T06:51:06.057Z,12.90
2019-05-03T06:53:36.020Z,12.80
2019-05-03T06:56:05.326Z,12.70
2019-05-03T06:58:36.432Z,12.80
2019-05-03T07:01:14.910Z,12.50
2019-05-03T07:04:01.919Z,12.70
2019-05-03T07:06:40.600Z,12.90
2019-05-03T07:09:35.484Z,13.10
2019-05-03T07:12:04.840Z,13.20
2019-05-03T07:14:34.940Z,13.00
2019-05-03T07:17:05.606Z,12.80
2019-05-03T07:19:35.515Z,13.20
2019-05-03T07:22:05.217Z,13.40
2019-05-03T07:24:40.336Z,13.20
2019-05-03T07:27:05.933Z,14.00
2019-05-03T07:29:36.622Z,13.60
2019-05-03T07:32:06.327Z,13.40
2019-05-03T07:34:35.653Z,14.10
2019-05-03T07:37:05.923Z,14.10
2019-05-03T07:39:35.472Z,13.80
2019-05-03T07:42:05.454Z,14.30
2019-05-03T07:44:35.694Z,14.40
2019-05-03T07:47:05.035Z,14.80
2019-05-03T07:49:35.728Z,14.60
2019-05-03T07:52:05.885Z,14.80
2019-05-03T07:54:36.173Z,14.70
2019-05-03T07:57:25.891Z,15.20
2019-05-03T07:59:55.720Z,14.70
2019-05-03T08:02:27.388Z,13.90
2019-05-03T08:04:56.208Z,13.80
2019-05-03T08:07:25.671Z,14.40
2019-05-03T08:09:55.648Z,15.10
2019-05-03T08:12:25.490Z,14.60
2019-05-03T08:14:55.326Z,14.50
2019-05-03T08:17:25.661Z,14.50
2019-05-03T08:19:55.411Z,14.50
2019-05-03T08:22:26.018Z,14.30
2019-05-03T08:24:55.632Z,14.00
2019-05-03T08:27:25.463Z,13.90
2019-05-03T08:29:55.791Z,13.80
2019-05-03T08:32:38.701Z,13.80
2019-05-03T08:35:12.145Z,13.80
2019-05-03T08:37:46.770Z,13.90
2019-05-03T08:40:16.508Z,14.20
2019-05-03T08:42:45.705Z,15.10
2019-05-03T08:45:15.286Z,15.00
2019-05-03T08:47:45.142Z,14.90
2019-05-03T08:50:19.398Z,15.20
2019-05-03T08:52:45.391Z,15.90
2019-05-03T08:55:15.931Z,15.80
2019-05-03T08:57:45.703Z,16.10
2019-05-03T09:00:17.473Z,15.40
2019-05-03T09:02:47.151Z,15.20
2019-05-03T09:05:18.573Z,15.00
2019-05-03T09:07:50.704Z,14.70
2019-05-03T09:10:25.581Z,14.60
2019-05-03T09:13:08.486Z,14.10
2019-05-03T09:15:38.380Z,14.30
2019-05-03T09:18:09.313Z,13.80
2019-05-03T09:20:39.018Z,13.90
2019-05-03T09:23:08.387Z,13.80
2019-05-03T09:25:38.123Z,13.70
2019-05-03T09:28:07.910Z,13.60
2019-05-03T09:30:38.506Z,14.10
2019-05-03T09:33:09.193Z,14.30
2019-05-03T09:35:39.047Z,14.70
2019-05-03T09:38:08.385Z,15.30
2019-05-03T09:40:37.587Z,15.60
2019-05-03T09:43:07.061Z,15.60
2019-05-03T09:45:36.749Z,15.70
2019-05-03T09:48:06.133Z,15.60
2019-05-03T09:50:36.047Z,16.00
2019-05-03T09:53:05.756Z,16.30
2019-05-03T09:55:39.042Z,15.90
2019-05-03T09:58:08.378Z,16.00
2019-05-03T10:00:37.950Z,15.90
2019-05-03T10:03:07.310Z,15.70
2019-05-03T10:05:36.597Z,15.80
2019-05-03T10:08:05.812Z,15.50
2019-05-03T10:11:00.731Z,15.40
2019-05-03T10:13:30.438Z,15.30
2019-05-03T10:15:59.849Z,15.10
2019-05-03T10:18:29.346Z,14.60
2019-05-03T10:20:58.539Z,14.20
2019-05-03T10:23:38.761Z,14.20
2019-05-03T10:26:08.603Z,15.00
2019-05-03T10:28:38.222Z,16.10
2019-05-03T10:31:08.106Z,15.40
2019-05-03T10:33:44.993Z,15.50
2019-05-03T10:36:15.471Z,15.30
2019-05-03T10:38:45.934Z,15.30
2019-05-03T10:41:17.256Z,15.00
2019-05-03T10:43:46.462Z,15.30
2019-05-03T10:46:16.011Z,15.40
2019-05-03T10:48:45.872Z,15.80
2019-05-03T10:51:15.833Z,15.80
2019-05-03T10:53:48.956Z,15.50
2019-05-03T10:56:23.258Z,15.80
2019-05-03T10:59:15.914Z,15.40
2019-05-03T11:02:04.474Z,15.20
2019-05-03T11:04:35.663Z,15.60
2019-05-03T11:07:05.816Z,16.20
2019-05-03T11:09:48.084Z,15.80
2019-05-03T11:12:07.149Z,15.60
2019-05-03T11:14:36.386Z,16.00
2019-05-03T11:17:05.804Z,16.70
2019-05-03T11:19:35.269Z,16.40
2019-05-03T11:22:05.398Z,16.40
2019-05-03T11:24:35.110Z,16.30
2019-05-03T11:27:08.738Z,16.50
2019-05-03T11:29:38.506Z,15.90
2019-05-03T11:32:25.639Z,15.90
2019-05-03T11:35:06.743Z,15.90
2019-05-03T11:37:55.206Z,15.60
2019-05-03T11:40:25.125Z,16.50
2019-05-03T11:42:56.220Z,16.50
2019-05-03T11:45:25.930Z,17.00
2019-05-03T11:47:55.185Z,17.00
2019-05-03T11:50:25.336Z,16.90
2019-05-03T11:52:55.504Z,16.40
2019-05-03T11:55:26.830Z,16.50
2019-05-03T11:57:56.672Z,16.50
2019-05-03T12:00:31.347Z,16.60
2019-05-03T12:03:25.525Z,16.60
2019-05-03T12:05:57.043Z,16.00
2019-05-03T12:08:26.706Z,15.60
2019-05-03T12:11:01.118Z,15.50
2019-05-03T12:13:30.460Z,15.80
2019-05-03T12:16:01.121Z,16.00
2019-05-03T12:18:44.900Z,15.90
2019-05-03T12:21:03.527Z,15.70
2019-05-03T12:23:36.053Z,15.20
2019-05-03T12:26:09.779Z,15.30
2019-05-03T12:28:36.046Z,15.60
2019-05-03T12:31:05.734Z,15.70
2019-05-03T12:33:35.594Z,15.60
2019-05-03T12:36:05.968Z,15.50
2019-05-03T12:38:36.627Z,15.60
2019-05-03T12:41:06.085Z,15.50
2019-05-03T12:43:36.279Z,15.50
2019-05-03T12:46:05.912Z,15.50
2019-05-03T12:48:35.600Z,15.20
2019-05-03T12:51:06.395Z,15.20
2019-05-03T12:53:36.463Z,15.30
2019-05-03T12:56:11.159Z,15.40
2019-05-03T12:59:02.903Z,15.00
2019-05-03T13:02:00.223Z,15.10
2019-05-03T13:04:32.766Z,15.20
2019-05-03T13:07:14.807Z,15.30
2019-05-03T13:09:45.351Z,15.10
2019-05-03T13:12:17.458Z,15.30
2019-05-03T13:14:47.063Z,15.00
2019-05-03T13:17:18.178Z,15.10
2019-05-03T13:19:47.434Z,15.50
2019-05-03T13:22:17.009Z,15.20
2019-05-03T13:24:46.663Z,15.10
2019-05-03T13:27:16.427Z,14.90
2019-05-03T13:29:45.955Z,15.00
2019-05-03T13:32:15.179Z,15.20
2019-05-03T13:34:44.802Z,15.20
2019-05-03T13:37:15.026Z,15.10
2019-05-03T13:39:45.080Z,15.00
2019-05-03T13:42:14.928Z,15.00
2019-05-03T13:44:44.921Z,15.20
2019-05-03T13:47:15.015Z,15.20
2019-05-03T13:49:44.788Z,15.30
2019-05-03T13:52:14.629Z,15.40
2019-05-03T13:54:45.959Z,15.30
2019-05-03T13:57:15.558Z,15.10
2019-05-03T13:59:45.107Z,14.70
2019-05-03T14:02:18.856Z,14.00
2019-05-03T14:04:52.555Z,14.00
2019-05-03T14:07:16.542Z,14.20
2019-05-03T14:09:45.985Z,14.00
2019-05-03T14:12:15.726Z,13.90
2019-05-03T14:14:55.985Z,14.90
2019-05-03T14:17:28.226Z,14.50
2019-05-03T14:20:14.647Z,14.30
2019-05-03T14:22:44.851Z,14.20
2019-05-03T14:25:15.140Z,14.10
2019-05-03T14:27:45.555Z,14.20
2019-05-03T14:30:16.239Z,14.30
2019-05-03T14:32:45.506Z,14.20
2019-05-03T14:35:16.262Z,14.10
2019-05-03T14:37:46.036Z,14.10
2019-05-03T14:40:16.022Z,14.30
2019-05-03T14:42:45.285Z,14.30
2019-05-03T14:45:15.280Z,14.20
2019-05-03T14:47:44.671Z,14.30
2019-05-03T14:50:14.967Z,14.40
2019-05-03T14:52:45.516Z,14.20
2019-05-03T14:55:21.735Z,14.20
2019-05-03T14:57:58.881Z,14.20
2019-05-03T15:00:37.461Z,14.10
2019-05-03T15:03:09.896Z,14.30
2019-05-03T15:05:39.504Z,14.30
2019-05-03T15:08:08.786Z,14.00
2019-05-03T15:10:38.536Z,14.10
2019-05-03T15:13:07.830Z,14.10
2019-05-03T15:15:37.113Z,13.90
2019-05-03T15:18:06.531Z,14.00
2019-05-03T15:20:36.122Z,14.10
2019-05-03T15:23:05.654Z,14.10
2019-05-03T15:25:35.193Z,14.20
2019-05-03T15:28:05.130Z,14.20
2019-05-03T15:30:35.256Z,14.30
2019-05-03T15:33:05.159Z,14.40
2019-05-03T15:35:35.149Z,14.70
2019-05-03T15:38:05.400Z,14.70
2019-05-03T15:40:36.074Z,14.70
2019-05-03T15:43:28.025Z,15.00
2019-05-03T15:46:05.245Z,15.00
2019-05-03T15:48:38.852Z,14.80
2019-05-03T15:51:08.588Z,14.80
2019-05-03T15:53:37.932Z,15.00
2019-05-03T15:56:07.690Z,14.60
2019-05-03T15:58:37.356Z,14.50
2019-05-03T16:01:06.974Z,14.30
2019-05-03T16:03:36.976Z,14.20
2019-05-03T16:06:06.894Z,14.00
2019-05-03T16:08:36.293Z,14.10
2019-05-03T16:11:05.623Z,14.30
2019-05-03T16:13:35.556Z,14.50
2019-05-03T16:16:06.459Z,14.40
2019-05-03T16:18:35.812Z,14.40
2019-05-03T16:21:05.478Z,14.60
2019-05-03T16:23:35.013Z,14.50
2019-05-03T16:26:07.136Z,14.40
2019-05-03T16:28:46.387Z,14.60
2019-05-03T16:31:18.507Z,14.80
2019-05-03T16:33:47.837Z,17.80
2019-05-03T16:36:17.254Z,19.00
2019-05-03T16:38:46.816Z,18.90
2019-05-03T16:41:17.981Z,17.90
2019-05-03T16:43:47.717Z,16.90
2019-05-03T16:46:17.314Z,16.00
2019-05-03T16:48:46.876Z,15.00
2019-05-03T16:51:17.272Z,14.90
2019-05-03T16:53:47.287Z,14.80
2019-05-03T16:56:17.131Z,14.60
2019-05-03T16:58:47.097Z,14.40
2019-05-03T17:01:18.207Z,14.30
2019-05-03T17:03:54.979Z,14.20
2019-05-03T17:06:45.179Z,14.10
2019-05-03T17:09:24.861Z,14.30
2019-05-03T17:12:12.331Z,14.40
2019-05-03T17:14:41.831Z,14.50
2019-05-03T17:17:11.939Z,14.50
2019-05-03T17:19:41.618Z,14.60
2019-05-03T17:22:11.262Z,14.70
2019-05-03T17:24:40.951Z,14.90
2019-05-03T17:27:10.637Z,14.90
2019-05-03T17:29:40.115Z,15.10
2019-05-03T17:32:11.042Z,15.20
2019-05-03T17:34:40.660Z,15.30
2019-05-03T17:37:10.525Z,15.20
2019-05-03T17:39:49.725Z,15.10
2019-05-03T17:42:47.277Z,14.90
2019-05-03T17:45:20.158Z,15.10
2019-05-03T17:47:49.659Z,15.10
2019-05-03T17:50:19.439Z,15.00
2019-05-03T17:52:55.645Z,15.00
2019-05-03T17:55:44.554Z,14.80
2019-05-03T17:58:26.544Z,14.70
2019-05-03T18:01:02.782Z,14.80
2019-05-03T18:03:35.217Z,14.60
2019-05-03T18:06:21.261Z,14.60
2019-05-03T18:09:00.988Z,14.60
2019-05-03T18:11:35.970Z,14.50
2019-05-03T18:14:07.454Z,14.50
2019-05-03T18:16:37.981Z,14.30
2019-05-03T18:19:09.029Z,14.10
2019-05-03T18:21:39.204Z,14.00
2019-05-03T18:24:08.705Z,14.10
2019-05-03T18:26:39.310Z,13.50
2019-05-03T18:29:08.928Z,14.20
2019-05-03T18:31:38.333Z,14.00
2019-05-03T18:34:18.555Z,14.00
2019-05-03T18:36:39.803Z,14.20
2019-05-03T18:39:09.764Z,14.10
2019-05-03T18:41:40.138Z,14.00
2019-05-03T18:44:31.402Z,13.80
2019-05-03T18:47:05.443Z,13.80
2019-05-03T18:49:35.924Z,13.80
2019-05-03T18:52:05.843Z,13.90
2019-05-03T18:54:35.746Z,13.80
2019-05-03T18:57:05.854Z,13.70
2019-05-03T18:59:35.138Z,13.70
2019-05-03T19:02:06.169Z,13.70
2019-05-03T19:04:42.294Z,13.70
2019-05-03T19:07:27.024Z,13.70
2019-05-03T19:10:16.018Z,13.70
2019-05-03T19:12:58.004Z,13.70
2019-05-03T19:15:28.064Z,13.70
2019-05-03T19:18:04.432Z,13.70
2019-05-03T19:20:35.271Z,13.50
2019-05-03T19:23:05.015Z,13.60
2019-05-03T19:25:45.778Z,13.70
2019-05-03T19:28:07.957Z,13.70
2019-05-03T19:30:38.884Z,13.80
2019-05-03T19:33:08.292Z,13.50
2019-05-03T19:35:37.984Z,13.50
2019-05-03T19:38:07.701Z,13.40
2019-05-03T19:40:37.475Z,13.30
2019-05-03T19:43:07.197Z,13.20
2019-05-03T19:45:36.940Z,13.20
2019-05-03T19:48:06.713Z,13.30
2019-05-03T19:50:36.756Z,13.20
2019-05-03T19:53:25.467Z,13.20
2019-05-03T19:55:55.324Z,13.20
2019-05-03T19:58:24.947Z,13.20
2019-05-03T20:01:11.813Z,13.10
2019-05-03T20:03:51.812Z,13.10
2019-05-03T20:06:52.392Z,13.20
2019-05-03T20:09:24.532Z,13.10
2019-05-03T20:11:59.832Z,13.00
2019-05-03T20:14:29.311Z,13.00
2019-05-03T20:16:58.686Z,13.10
2019-05-03T20:19:28.546Z,13.10
2019-05-03T20:21:58.579Z,13.20
2019-05-03T20:24:30.898Z,13.10
2019-05-03T20:27:04.745Z,13.10
2019-05-03T20:29:40.885Z,13.10
2019-05-03T20:32:10.376Z,13.10
2019-05-03T20:34:44.753Z,13.00
2019-05-03T20:37:57.137Z,13.00
2019-05-03T20:40:29.817Z,13.10
2019-05-03T20:43:19.573Z,13.20
2019-05-03T20:46:47.015Z,13.20
2019-05-03T20:52:45.182Z,13.00
2019-05-03T20:55:15.645Z,13.10
2019-05-03T20:57:45.017Z,13.10
2019-05-03T21:00:18.800Z,13.10
2019-05-03T21:02:53.368Z,13.10
2019-05-03T21:05:29.593Z,13.00
2019-05-03T21:07:51.721Z,13.00
2019-05-03T21:10:21.230Z,13.00
2019-05-03T21:12:50.943Z,12.90
2019-05-03T21:15:45.354Z,13.00
2019-05-03T21:18:27.137Z,12.80
2019-05-03T21:21:05.841Z,12.80
2019-05-03T21:23:38.351Z,12.70
2019-05-03T21:26:13.347Z,12.70
2019-05-03T21:28:41.922Z,12.80
2019-05-03T21:31:11.181Z,12.70
2019-05-03T21:33:40.814Z,12.70
2019-05-03T21:36:10.090Z,12.70
2019-05-03T21:38:40.928Z,12.70
2019-05-03T21:41:10.419Z,12.60
2019-05-03T21:43:39.677Z,12.60
2019-05-03T21:46:16.662Z,12.60
2019-05-03T21:49:11.299Z,12.70
2019-05-03T21:51:40.895Z,12.70
2019-05-03T21:54:10.956Z,12.60
2019-05-03T21:56:40.242Z,12.70
2019-05-03T21:59:09.718Z,12.70
2019-05-03T22:01:42.509Z,12.70
2019-05-03T22:04:11.787Z,12.70
2019-05-03T22:06:41.127Z,12.60
2019-05-03T22:09:11.239Z,12.70
2019-05-03T22:11:41.050Z,12.60
2019-05-03T22:14:16.742Z,12.60
2019-05-03T22:16:52.951Z,12.70
2019-05-03T22:19:22.441Z,12.70
2019-05-03T22:22:14.926Z,12.60
2019-05-03T22:24:48.217Z,12.60
2019-05-03T22:27:19.532Z,12.60
2019-05-03T22:29:48.737Z,12.60
2019-05-03T22:32:18.026Z,12.60
2019-05-03T22:34:47.228Z,12.60
2019-05-03T22:37:16.774Z,12.60
2019-05-03T22:39:47.698Z,12.70
2019-05-03T22:42:17.138Z,12.60
2019-05-03T22:44:46.373Z,12.60
2019-05-03T22:47:15.597Z,12.50
2019-05-03T22:49:45.601Z,12.50
2019-05-03T22:52:15.494Z,12.40
2019-05-03T22:54:45.221Z,12.50
2019-05-03T22:57:15.281Z,12.40
2019-05-03T22:59:45.018Z,12.40
2019-05-03T23:02:16.719Z,12.30
2019-05-03T23:04:45.790Z,12.30
2019-05-03T23:07:15.070Z,12.30
2019-05-03T23:09:44.756Z,12.10
2019-05-03T23:12:14.059Z,12.20
2019-05-03T23:14:44.683Z,12.20
2019-05-03T23:17:14.950Z,12.20
2019-05-03T23:19:46.477Z,12.30
2019-05-03T23:22:28.129Z,12.30
2019-05-03T23:24:57.706Z,12.20
2019-05-03T23:27:27.250Z,12.30
2019-05-03T23:29:56.634Z,12.30
2019-05-03T23:32:25.879Z,12.20
2019-05-03T23:34:55.443Z,12.20
2019-05-03T23:37:24.607Z,12.20
2019-05-03T23:39:55.174Z,12.20
2019-05-03T23:42:24.629Z,12.10
2019-05-03T23:44:54.174Z,12.00
2019-05-03T23:47:37.554Z,12.10
2019-05-03T23:50:08.158Z,12.00
2019-05-03T23:52:38.614Z,12.00
2019-05-03T23:55:19.426Z,11.90
2019-05-03T23:57:48.689Z,11.90
